sensor_id;sensor_type;location;lat;lon;timestamp;temperature;humidity
13174;DHT22;6652;48.802;9.190;2023-03-14T00:00:49;10.70;99.90
13174;DHT22;6652;48.802;9.190;2023-03-14T00:03:16;10.70;99.90
13174;DHT22;6652;48.802;9.190;2023-03-14T00:05:42;10.60;99.90
13174;DHT22;6652;48.802;9.190;2023-03-14T00:08:09;10.70;99.90
13174;DHT22;6652;48.802;9.190;2023-03-14T00:10:38;10.60;99.90
13174;DHT22;6652;48.802;9.190;2023-03-14T00:13:05;10.60;99.90
13174;DHT22;6652;48.802;9.190;2023-03-14T00:15:32;10.60;99.90
13174;DHT22;6652;48.802;9.190;2023-03-14T00:17:59;10.50;99.90
13174;DHT22;6652;48.802;9.190;2023-03-14T00:20:26;10.60;99.90
13174;DHT22;6652;48.802;9.190;2023-03-14T00:22:52;10.70;99.90
13174;DHT22;6652;48.802;9.190;2023-03-14T00:25:19;10.70;99.90
13174;DHT22;6652;48.802;9.190;2023-03-14T00:27:50;10.50;99.90
13174;DHT22;6652;48.802;9.190;2023-03-14T00:30:17;10.50;99.90
13174;DHT22;6652;48.802;9.190;2023-03-14T00:32:44;10.60;99.90
13174;DHT22;6652;48.802;9.190;2023-03-14T00:35:10;10.60;99.90
13174;DHT22;6652;48.802;9.190;2023-03-14T00:37:37;10.50;99.90
13174;DHT22;6652;48.802;9.190;2023-03-14T00:40:05;10.50;99.90
13174;DHT22;6652;48.802;9.190;2023-03-14T00:42:33;10.60;99.90
13174;DHT22;6652;48.802;9.190;2023-03-14T00:45:02;10.60;99.90
13174;DHT22;6652;48.802;9.190;2023-03-14T00:47:29;10.60;99.90
13174;DHT22;6652;48.802;9.190;2023-03-14T00:49:56;11.30;99.90
13174;DHT22;6652;48.802;9.190;2023-03-14T00:52:22;10.60;99.90
13174;DHT22;6652;48.802;9.190;2023-03-14T00:54:49;10.60;99.90
13174;DHT22;6652;48.802;9.190;2023-03-14T00:57:16;10.60;99.90
13174;DHT22;6652;48.802;9.190;2023-03-14T00:59:43;10.80;99.90
13174;DHT22;6652;48.802;9.190;2023-03-14T01:02:11;10.50;99.90
13174;DHT22;6652;48.802;9.190;2023-03-14T01:04:37;10.60;99.90
13174;DHT22;6652;48.802;9.190;2023-03-14T01:07:04;10.50;99.90
13174;DHT22;6652;48.802;9.190;2023-03-14T01:09:31;10.50;99.90
13174;DHT22;6652;48.802;9.190;2023-03-14T01:11:58;10.60;99.90
13174;DHT22;6652;48.802;9.190;2023-03-14T01:14:25;10.60;99.90
13174;DHT22;6652;48.802;9.190;2023-03-14T01:16:52;10.60;99.90
13174;DHT22;6652;48.802;9.190;2023-03-14T01:19:20;10.60;99.90
13174;DHT22;6652;48.802;9.190;2023-03-14T01:21:47;10.70;99.90
13174;DHT22;6652;48.802;9.190;2023-03-14T01:24:13;10.70;99.90
13174;DHT22;6652;48.802;9.190;2023-03-14T01:26:41;10.60;99.90
13174;DHT22;6652;48.802;9.190;2023-03-14T01:29:08;10.70;99.90
13174;DHT22;6652;48.802;9.190;2023-03-14T01:31:34;10.60;99.90
13174;DHT22;6652;48.802;9.190;2023-03-14T01:34:01;10.60;99.90
13174;DHT22;6652;48.802;9.190;2023-03-14T01:36:29;10.70;99.90
13174;DHT22;6652;48.802;9.190;2023-03-14T01:38:56;10.70;99.90
13174;DHT22;6652;48.802;9.190;2023-03-14T01:41:25;10.60;99.90
13174;DHT22;6652;48.802;9.190;2023-03-14T01:43:52;10.60;99.90
13174;DHT22;6652;48.802;9.190;2023-03-14T01:46:26;10.60;99.90
13174;DHT22;6652;48.802;9.190;2023-03-14T01:48:59;10.60;99.90
13174;DHT22;6652;48.802;9.190;2023-03-14T01:51:34;10.60;99.90
13174;DHT22;6652;48.802;9.190;2023-03-14T01:54:06;10.50;99.90
13174;DHT22;6652;48.802;9.190;2023-03-14T01:56:35;10.50;99.90
13174;DHT22;6652;48.802;9.190;2023-03-14T01:59:04;10.50;99.90
13174;DHT22;6652;48.802;9.190;2023-03-14T02:01:33;10.70;99.90
13174;DHT22;6652;48.802;9.190;2023-03-14T02:04:03;10.50;99.90
13174;DHT22;6652;48.802;9.190;2023-03-14T02:06:38;10.50;99.90
13174;DHT22;6652;48.802;9.190;2023-03-14T02:09:06;10.60;99.90
13174;DHT22;6652;48.802;9.190;2023-03-14T02:11:33;10.50;99.90
13174;DHT22;6652;48.802;9.190;2023-03-14T02:14:26;10.50;99.90
13174;DHT22;6652;48.802;9.190;2023-03-14T02:16:54;10.50;99.90
13174;DHT22;6652;48.802;9.190;2023-03-14T02:19:26;10.50;99.90
13174;DHT22;6652;48.802;9.190;2023-03-14T02:22:03;10.70;99.90
13174;DHT22;6652;48.802;9.190;2023-03-14T02:24:38;10.50;99.90
13174;DHT22;6652;48.802;9.190;2023-03-14T02:27:12;10.40;99.90
13174;DHT22;6652;48.802;9.190;2023-03-14T02:29:46;10.40;99.90
13174;DHT22;6652;48.802;9.190;2023-03-14T02:32:14;10.40;99.90
13174;DHT22;6652;48.802;9.190;2023-03-14T02:34:43;10.40;99.90
13174;DHT22;6652;48.802;9.190;2023-03-14T02:37:11;10.40;99.90
13174;DHT22;6652;48.802;9.190;2023-03-14T02:39:42;10.30;99.90
13174;DHT22;6652;48.802;9.190;2023-03-14T02:42:11;10.30;99.90
13174;DHT22;6652;48.802;9.190;2023-03-14T02:44:48;10.30;99.90
13174;DHT22;6652;48.802;9.190;2023-03-14T02:47:15;10.30;99.90
13174;DHT22;6652;48.802;9.190;2023-03-14T02:49:42;10.30;99.90
13174;DHT22;6652;48.802;9.190;2023-03-14T02:52:09;10.30;99.90
13174;DHT22;6652;48.802;9.190;2023-03-14T02:54:36;10.20;99.90
13174;DHT22;6652;48.802;9.190;2023-03-14T02:57:03;10.20;99.90
13174;DHT22;6652;48.802;9.190;2023-03-14T02:59:31;10.20;99.90
13174;DHT22;6652;48.802;9.190;2023-03-14T03:01:59;10.20;99.90
13174;DHT22;6652;48.802;9.190;2023-03-14T03:04:26;10.30;99.90
13174;DHT22;6652;48.802;9.190;2023-03-14T03:06:53;10.20;99.90
13174;DHT22;6652;48.802;9.190;2023-03-14T03:09:20;10.20;99.90
13174;DHT22;6652;48.802;9.190;2023-03-14T03:11:46;10.20;99.90
13174;DHT22;6652;48.802;9.190;2023-03-14T03:14:13;10.20;99.90
13174;DHT22;6652;48.802;9.190;2023-03-14T03:16:41;10.80;99.90
13174;DHT22;6652;48.802;9.190;2023-03-14T03:19:08;10.30;99.90
13174;DHT22;6652;48.802;9.190;2023-03-14T03:21:35;10.10;99.90
13174;DHT22;6652;48.802;9.190;2023-03-14T03:24:02;10.50;99.90
13174;DHT22;6652;48.802;9.190;2023-03-14T03:26:29;10.20;99.90
13174;DHT22;6652;48.802;9.190;2023-03-14T03:28:56;10.20;99.90
13174;DHT22;6652;48.802;9.190;2023-03-14T03:31:22;10.20;99.90
13174;DHT22;6652;48.802;9.190;2023-03-14T03:33:51;10.10;99.90
13174;DHT22;6652;48.802;9.190;2023-03-14T03:36:21;10.20;99.90
13174;DHT22;6652;48.802;9.190;2023-03-14T03:38:48;11.60;99.90
13174;DHT22;6652;48.802;9.190;2023-03-14T03:41:15;10.40;99.90
13174;DHT22;6652;48.802;9.190;2023-03-14T03:43:42;10.30;99.90
13174;DHT22;6652;48.802;9.190;2023-03-14T03:46:09;10.10;99.90
13174;DHT22;6652;48.802;9.190;2023-03-14T03:48:36;10.10;99.90
13174;DHT22;6652;48.802;9.190;2023-03-14T03:51:05;10.10;99.90
13174;DHT22;6652;48.802;9.190;2023-03-14T03:53:32;10.10;99.90
13174;DHT22;6652;48.802;9.190;2023-03-14T03:55:59;10.10;99.90
13174;DHT22;6652;48.802;9.190;2023-03-14T03:58:26;10.10;99.90
13174;DHT22;6652;48.802;9.190;2023-03-14T04:00:54;10.10;99.90
13174;DHT22;6652;48.802;9.190;2023-03-14T04:03:20;10.00;99.90
13174;DHT22;6652;48.802;9.190;2023-03-14T04:05:58;10.00;99.90
13174;DHT22;6652;48.802;9.190;2023-03-14T04:08:26;10.60;99.90
13174;DHT22;6652;48.802;9.190;2023-03-14T04:10:55;10.30;99.90
13174;DHT22;6652;48.802;9.190;2023-03-14T04:13:22;9.90;99.90
13174;DHT22;6652;48.802;9.190;2023-03-14T04:15:49;9.90;99.90
13174;DHT22;6652;48.802;9.190;2023-03-14T04:18:16;9.90;99.90
13174;DHT22;6652;48.802;9.190;2023-03-14T04:20:43;9.90;99.90
13174;DHT22;6652;48.802;9.190;2023-03-14T04:23:10;9.90;99.90
13174;DHT22;6652;48.802;9.190;2023-03-14T04:25:38;9.90;99.90
13174;DHT22;6652;48.802;9.190;2023-03-14T04:28:05;10.40;99.90
13174;DHT22;6652;48.802;9.190;2023-03-14T04:30:32;9.90;99.90
13174;DHT22;6652;48.802;9.190;2023-03-14T04:32:59;10.30;99.90
13174;DHT22;6652;48.802;9.190;2023-03-14T04:35:26;10.10;99.90
13174;DHT22;6652;48.802;9.190;2023-03-14T04:37:53;9.90;99.90
13174;DHT22;6652;48.802;9.190;2023-03-14T04:40:20;9.80;99.90
13174;DHT22;6652;48.802;9.190;2023-03-14T04:42:48;9.80;99.90
13174;DHT22;6652;48.802;9.190;2023-03-14T04:45:15;9.80;99.90
13174;DHT22;6652;48.802;9.190;2023-03-14T04:47:42;9.80;99.90
13174;DHT22;6652;48.802;9.190;2023-03-14T04:50:10;11.00;99.90
13174;DHT22;6652;48.802;9.190;2023-03-14T04:52:37;9.80;99.90
13174;DHT22;6652;48.802;9.190;2023-03-14T04:55:04;9.80;99.90
13174;DHT22;6652;48.802;9.190;2023-03-14T04:57:31;9.80;99.90
13174;DHT22;6652;48.802;9.190;2023-03-14T04:59:59;9.80;99.90
13174;DHT22;6652;48.802;9.190;2023-03-14T05:02:31;9.70;99.90
13174;DHT22;6652;48.802;9.190;2023-03-14T05:04:58;9.70;99.90
13174;DHT22;6652;48.802;9.190;2023-03-14T05:07:25;9.80;99.90
13174;DHT22;6652;48.802;9.190;2023-03-14T05:09:52;9.70;99.90
13174;DHT22;6652;48.802;9.190;2023-03-14T05:12:19;9.80;99.90
13174;DHT22;6652;48.802;9.190;2023-03-14T05:14:46;9.70;99.90
13174;DHT22;6652;48.802;9.190;2023-03-14T05:17:14;9.70;99.90
13174;DHT22;6652;48.802;9.190;2023-03-14T05:19:42;9.70;99.90
13174;DHT22;6652;48.802;9.190;2023-03-14T05:22:09;9.60;99.90
13174;DHT22;6652;48.802;9.190;2023-03-14T05:24:36;9.70;99.90
13174;DHT22;6652;48.802;9.190;2023-03-14T05:27:03;9.60;99.90
13174;DHT22;6652;48.802;9.190;2023-03-14T05:29:30;9.60;99.90
13174;DHT22;6652;48.802;9.190;2023-03-14T05:31:57;9.60;99.90
13174;DHT22;6652;48.802;9.190;2023-03-14T05:34:25;9.60;99.90
13174;DHT22;6652;48.802;9.190;2023-03-14T05:36:52;9.50;99.90
13174;DHT22;6652;48.802;9.190;2023-03-14T05:39:20;9.50;99.90
13174;DHT22;6652;48.802;9.190;2023-03-14T05:41:47;10.10;99.90
13174;DHT22;6652;48.802;9.190;2023-03-14T05:44:14;9.60;99.90
13174;DHT22;6652;48.802;9.190;2023-03-14T05:46:41;9.60;99.90
13174;DHT22;6652;48.802;9.190;2023-03-14T05:49:08;9.50;99.90
13174;DHT22;6652;48.802;9.190;2023-03-14T05:51:36;9.80;99.90
13174;DHT22;6652;48.802;9.190;2023-03-14T05:54:03;9.50;99.90
13174;DHT22;6652;48.802;9.190;2023-03-14T05:56:30;9.40;99.90
13174;DHT22;6652;48.802;9.190;2023-03-14T05:58:57;9.60;99.90
13174;DHT22;6652;48.802;9.190;2023-03-14T06:01:24;9.60;99.90
13174;DHT22;6652;48.802;9.190;2023-03-14T06:03:51;10.70;99.90
13174;DHT22;6652;48.802;9.190;2023-03-14T06:06:17;9.70;99.90
13174;DHT22;6652;48.802;9.190;2023-03-14T06:08:46;9.80;99.90
13174;DHT22;6652;48.802;9.190;2023-03-14T06:11:12;10.10;99.90
13174;DHT22;6652;48.802;9.190;2023-03-14T06:13:39;9.80;99.90
13174;DHT22;6652;48.802;9.190;2023-03-14T06:16:07;9.80;99.90
13174;DHT22;6652;48.802;9.190;2023-03-14T06:18:34;9.80;99.90
13174;DHT22;6652;48.802;9.190;2023-03-14T06:21:00;9.90;99.90
13174;DHT22;6652;48.802;9.190;2023-03-14T06:23:27;9.90;99.90
13174;DHT22;6652;48.802;9.190;2023-03-14T06:29:05;9.80;99.90
13174;DHT22;6652;48.802;9.190;2023-03-14T06:31:32;10.10;99.90
13174;DHT22;6652;48.802;9.190;2023-03-14T06:33:59;10.10;99.90
13174;DHT22;6652;48.802;9.190;2023-03-14T06:36:26;10.20;99.90
13174;DHT22;6652;48.802;9.190;2023-03-14T06:38:53;10.20;99.90
13174;DHT22;6652;48.802;9.190;2023-03-14T06:41:20;10.30;99.90
13174;DHT22;6652;48.802;9.190;2023-03-14T06:43:49;10.40;99.90
13174;DHT22;6652;48.802;9.190;2023-03-14T06:46:17;10.70;99.90
13174;DHT22;6652;48.802;9.190;2023-03-14T06:48:44;11.50;99.90
13174;DHT22;6652;48.802;9.190;2023-03-14T06:51:11;11.80;99.90
13174;DHT22;6652;48.802;9.190;2023-03-14T06:53:38;12.60;99.90
13174;DHT22;6652;48.802;9.190;2023-03-14T06:56:05;13.90;99.90
13174;DHT22;6652;48.802;9.190;2023-03-14T06:58:32;14.90;99.90
13174;DHT22;6652;48.802;9.190;2023-03-14T07:00:59;16.00;99.90
13174;DHT22;6652;48.802;9.190;2023-03-14T07:03:28;17.30;99.90
13174;DHT22;6652;48.802;9.190;2023-03-14T07:05:55;18.30;99.90
13174;DHT22;6652;48.802;9.190;2023-03-14T07:08:22;19.20;99.90
13174;DHT22;6652;48.802;9.190;2023-03-14T07:10:49;18.90;97.90
13174;DHT22;6652;48.802;9.190;2023-03-14T07:13:15;18.50;97.50
13174;DHT22;6652;48.802;9.190;2023-03-14T07:15:42;18.60;97.40
13174;DHT22;6652;48.802;9.190;2023-03-14T07:18:09;19.50;96.50
13174;DHT22;6652;48.802;9.190;2023-03-14T07:20:37;20.60;95.60
13174;DHT22;6652;48.802;9.190;2023-03-14T07:23:05;21.40;93.60
13174;DHT22;6652;48.802;9.190;2023-03-14T07:25:32;22.20;91.40
13174;DHT22;6652;48.802;9.190;2023-03-14T07:27:59;22.30;88.70
13174;DHT22;6652;48.802;9.190;2023-03-14T07:30:26;22.90;86.80
13174;DHT22;6652;48.802;9.190;2023-03-14T07:32:53;23.50;86.30
13174;DHT22;6652;48.802;9.190;2023-03-14T07:35:19;24.20;82.90
13174;DHT22;6652;48.802;9.190;2023-03-14T07:37:48;24.50;78.30
13174;DHT22;6652;48.802;9.190;2023-03-14T07:40:15;24.60;77.20
13174;DHT22;6652;48.802;9.190;2023-03-14T07:42:42;24.60;76.10
13174;DHT22;6652;48.802;9.190;2023-03-14T07:45:10;25.00;75.70
13174;DHT22;6652;48.802;9.190;2023-03-14T07:47:37;25.50;74.50
13174;DHT22;6652;48.802;9.190;2023-03-14T07:50:05;26.00;71.10
13174;DHT22;6652;48.802;9.190;2023-03-14T07:52:32;26.10;68.10
13174;DHT22;6652;48.802;9.190;2023-03-14T07:55:00;26.40;68.30
13174;DHT22;6652;48.802;9.190;2023-03-14T07:57:27;26.00;67.00
13174;DHT22;6652;48.802;9.190;2023-03-14T07:59:54;26.30;66.30
13174;DHT22;6652;48.802;9.190;2023-03-14T08:02:21;26.10;66.60
13174;DHT22;6652;48.802;9.190;2023-03-14T08:04:49;25.90;64.90
13174;DHT22;6652;48.802;9.190;2023-03-14T08:07:16;25.90;66.70
13174;DHT22;6652;48.802;9.190;2023-03-14T08:09:43;26.00;65.90
13174;DHT22;6652;48.802;9.190;2023-03-14T08:12:12;26.30;64.30
13174;DHT22;6652;48.802;9.190;2023-03-14T08:14:38;26.30;63.40
13174;DHT22;6652;48.802;9.190;2023-03-14T08:17:05;25.60;63.40
13174;DHT22;6652;48.802;9.190;2023-03-14T08:19:33;24.10;65.70
13174;DHT22;6652;48.802;9.190;2023-03-14T08:22:00;24.00;67.70
13174;DHT22;6652;48.802;9.190;2023-03-14T08:24:28;23.80;67.60
13174;DHT22;6652;48.802;9.190;2023-03-14T08:26:54;24.90;67.50
13174;DHT22;6652;48.802;9.190;2023-03-14T08:29:23;25.50;65.10
13174;DHT22;6652;48.802;9.190;2023-03-14T08:31:49;25.50;63.40
13174;DHT22;6652;48.802;9.190;2023-03-14T08:34:16;25.70;62.60
13174;DHT22;6652;48.802;9.190;2023-03-14T08:36:43;26.00;63.10
13174;DHT22;6652;48.802;9.190;2023-03-14T08:39:11;26.20;61.20
13174;DHT22;6652;48.802;9.190;2023-03-14T08:41:38;25.80;61.40
13174;DHT22;6652;48.802;9.190;2023-03-14T08:44:08;24.90;61.70
13174;DHT22;6652;48.802;9.190;2023-03-14T08:46:38;24.40;63.00
13174;DHT22;6652;48.802;9.190;2023-03-14T08:49:04;24.10;63.80
13174;DHT22;6652;48.802;9.190;2023-03-14T08:51:31;23.50;65.10
13174;DHT22;6652;48.802;9.190;2023-03-14T08:53:58;24.00;65.60
13174;DHT22;6652;48.802;9.190;2023-03-14T08:56:25;25.30;63.50
13174;DHT22;6652;48.802;9.190;2023-03-14T08:58:51;26.10;61.70
13174;DHT22;6652;48.802;9.190;2023-03-14T09:01:18;26.30;60.50
13174;DHT22;6652;48.802;9.190;2023-03-14T09:03:47;26.50;59.30
13174;DHT22;6652;48.802;9.190;2023-03-14T09:06:14;25.90;58.90
13174;DHT22;6652;48.802;9.190;2023-03-14T09:08:43;24.20;62.00
13174;DHT22;6652;48.802;9.190;2023-03-14T09:11:10;23.20;63.60
13174;DHT22;6652;48.802;9.190;2023-03-14T09:13:37;23.20;66.00
13174;DHT22;6652;48.802;9.190;2023-03-14T09:16:04;22.50;66.10
13174;DHT22;6652;48.802;9.190;2023-03-14T09:18:31;21.70;68.90
13174;DHT22;6652;48.802;9.190;2023-03-14T09:20:59;21.30;70.40
13174;DHT22;6652;48.802;9.190;2023-03-14T09:23:27;21.20;71.30
13174;DHT22;6652;48.802;9.190;2023-03-14T09:25:55;21.50;72.20
13174;DHT22;6652;48.802;9.190;2023-03-14T09:28:22;22.50;71.60
13174;DHT22;6652;48.802;9.190;2023-03-14T09:30:48;23.40;70.40
13174;DHT22;6652;48.802;9.190;2023-03-14T09:33:15;23.70;68.60
13174;DHT22;6652;48.802;9.190;2023-03-14T09:35:42;24.50;68.00
13174;DHT22;6652;48.802;9.190;2023-03-14T09:38:10;24.20;66.70
13174;DHT22;6652;48.802;9.190;2023-03-14T09:40:40;23.80;67.80
13174;DHT22;6652;48.802;9.190;2023-03-14T09:43:10;23.30;67.10
13174;DHT22;6652;48.802;9.190;2023-03-14T09:45:40;21.90;69.30
13174;DHT22;6652;48.802;9.190;2023-03-14T09:48:14;21.60;72.00
13174;DHT22;6652;48.802;9.190;2023-03-14T09:50:43;20.70;72.70
13174;DHT22;6652;48.802;9.190;2023-03-14T09:53:16;19.90;74.80
13174;DHT22;6652;48.802;9.190;2023-03-14T09:55:45;19.10;76.80
13174;DHT22;6652;48.802;9.190;2023-03-14T09:58:14;18.90;78.20
13174;DHT22;6652;48.802;9.190;2023-03-14T10:00:42;19.00;79.40
13174;DHT22;6652;48.802;9.190;2023-03-14T10:03:25;19.90;78.70
13174;DHT22;6652;48.802;9.190;2023-03-14T10:05:52;20.30;77.00
13174;DHT22;6652;48.802;9.190;2023-03-14T10:08:22;20.70;76.00
13174;DHT22;6652;48.802;9.190;2023-03-14T10:10:49;20.80;74.80
13174;DHT22;6652;48.802;9.190;2023-03-14T10:13:18;21.10;73.70
13174;DHT22;6652;48.802;9.190;2023-03-14T10:15:50;22.50;73.60
13174;DHT22;6652;48.802;9.190;2023-03-14T10:18:17;23.50;70.90
13174;DHT22;6652;48.802;9.190;2023-03-14T10:20:46;24.70;69.10
13174;DHT22;6652;48.802;9.190;2023-03-14T10:23:24;24.90;65.60
13174;DHT22;6652;48.802;9.190;2023-03-14T10:26:07;24.60;65.30
13174;DHT22;6652;48.802;9.190;2023-03-14T10:28:39;24.00;65.70
13174;DHT22;6652;48.802;9.190;2023-03-14T10:31:06;23.70;66.10
13174;DHT22;6652;48.802;9.190;2023-03-14T10:33:34;21.70;68.50
13174;DHT22;6652;48.802;9.190;2023-03-14T10:36:03;20.10;71.40
13174;DHT22;6652;48.802;9.190;2023-03-14T10:38:34;19.10;74.60
13174;DHT22;6652;48.802;9.190;2023-03-14T10:41:05;18.60;76.70
13174;DHT22;6652;48.802;9.190;2023-03-14T10:43:41;18.30;77.90
13174;DHT22;6652;48.802;9.190;2023-03-14T10:46:10;18.20;79.10
13174;DHT22;6652;48.802;9.190;2023-03-14T10:48:39;18.40;79.30
13174;DHT22;6652;48.802;9.190;2023-03-14T10:51:10;18.40;78.80
13174;DHT22;6652;48.802;9.190;2023-03-14T10:53:44;18.00;79.00
13174;DHT22;6652;48.802;9.190;2023-03-14T10:56:13;17.50;80.30
13174;DHT22;6652;48.802;9.190;2023-03-14T10:58:42;17.20;81.40
13174;DHT22;6652;48.802;9.190;2023-03-14T11:01:20;16.70;82.60
13174;DHT22;6652;48.802;9.190;2023-03-14T11:03:53;16.50;84.00
13174;DHT22;6652;48.802;9.190;2023-03-14T11:06:23;16.20;85.20
13174;DHT22;6652;48.802;9.190;2023-03-14T11:08:57;15.90;86.60
13174;DHT22;6652;48.802;9.190;2023-03-14T11:11:31;15.70;88.10
13174;DHT22;6652;48.802;9.190;2023-03-14T11:14:06;15.50;88.70
13174;DHT22;6652;48.802;9.190;2023-03-14T11:16:43;15.50;90.20
13174;DHT22;6652;48.802;9.190;2023-03-14T11:22:17;15.40;90.70
13174;DHT22;6652;48.802;9.190;2023-03-14T11:24:57;15.30;91.30
13174;DHT22;6652;48.802;9.190;2023-03-14T11:27:28;15.10;92.40
13174;DHT22;6652;48.802;9.190;2023-03-14T11:30:03;14.80;93.80
13174;DHT22;6652;48.802;9.190;2023-03-14T11:32:41;14.70;94.80
13174;DHT22;6652;48.802;9.190;2023-03-14T11:35:16;14.40;95.10
13174;DHT22;6652;48.802;9.190;2023-03-14T11:37:46;14.40;96.00
13174;DHT22;6652;48.802;9.190;2023-03-14T11:40:18;14.20;96.70
13174;DHT22;6652;48.802;9.190;2023-03-14T11:42:50;14.10;97.00
13174;DHT22;6652;48.802;9.190;2023-03-14T11:45:26;14.00;97.30
13174;DHT22;6652;48.802;9.190;2023-03-14T11:48:06;14.00;98.10
13174;DHT22;6652;48.802;9.190;2023-03-14T11:50:35;14.10;98.10
13174;DHT22;6652;48.802;9.190;2023-03-14T11:53:07;14.10;98.50
13174;DHT22;6652;48.802;9.190;2023-03-14T11:55:39;14.10;98.50
13174;DHT22;6652;48.802;9.190;2023-03-14T11:58:13;14.00;99.00
13174;DHT22;6652;48.802;9.190;2023-03-14T12:00:41;13.90;99.20
13174;DHT22;6652;48.802;9.190;2023-03-14T12:03:13;13.80;99.90
13174;DHT22;6652;48.802;9.190;2023-03-14T12:05:48;13.90;99.90
13174;DHT22;6652;48.802;9.190;2023-03-14T12:08:42;13.90;99.90
13174;DHT22;6652;48.802;9.190;2023-03-14T12:11:21;13.90;99.90
13174;DHT22;6652;48.802;9.190;2023-03-14T12:13:50;14.20;99.90
13174;DHT22;6652;48.802;9.190;2023-03-14T12:16:30;14.40;99.90
13174;DHT22;6652;48.802;9.190;2023-03-14T12:18:57;14.40;99.90
13174;DHT22;6652;48.802;9.190;2023-03-14T12:21:47;14.30;99.90
13174;DHT22;6652;48.802;9.190;2023-03-14T12:24:18;14.30;99.90
13174;DHT22;6652;48.802;9.190;2023-03-14T12:26:53;14.20;99.90
13174;DHT22;6652;48.802;9.190;2023-03-14T12:29:20;14.30;99.90
13174;DHT22;6652;48.802;9.190;2023-03-14T12:31:48;14.40;99.90
13174;DHT22;6652;48.802;9.190;2023-03-14T12:34:31;14.50;99.90
13174;DHT22;6652;48.802;9.190;2023-03-14T12:37:05;14.50;99.90
13174;DHT22;6652;48.802;9.190;2023-03-14T12:39:40;14.50;98.00
13174;DHT22;6652;48.802;9.190;2023-03-14T12:42:13;14.60;97.00
13174;DHT22;6652;48.802;9.190;2023-03-14T12:44:46;14.60;96.00
13174;DHT22;6652;48.802;9.190;2023-03-14T12:47:53;14.70;96.40
13174;DHT22;6652;48.802;9.190;2023-03-14T12:50:25;14.50;94.10
13174;DHT22;6652;48.802;9.190;2023-03-14T12:53:27;14.20;93.30
13174;DHT22;6652;48.802;9.190;2023-03-14T12:56:02;13.90;92.30
13174;DHT22;6652;48.802;9.190;2023-03-14T12:58:35;13.70;91.90
13174;DHT22;6652;48.802;9.190;2023-03-14T13:01:06;13.50;90.10
13174;DHT22;6652;48.802;9.190;2023-03-14T13:03:45;13.30;90.20
13174;DHT22;6652;48.802;9.190;2023-03-14T13:06:12;13.50;90.20
13174;DHT22;6652;48.802;9.190;2023-03-14T13:08:40;13.50;89.20
13174;DHT22;6652;48.802;9.190;2023-03-14T13:11:10;13.30;88.40
13174;DHT22;6652;48.802;9.190;2023-03-14T13:13:45;13.10;88.70
13174;DHT22;6652;48.802;9.190;2023-03-14T13:16:16;12.90;87.70
13174;DHT22;6652;48.802;9.190;2023-03-14T13:18:45;12.80;88.00
13174;DHT22;6652;48.802;9.190;2023-03-14T13:21:14;12.60;88.20
13174;DHT22;6652;48.802;9.190;2023-03-14T13:23:55;12.40;88.00
13174;DHT22;6652;48.802;9.190;2023-03-14T13:26:24;12.50;88.70
13174;DHT22;6652;48.802;9.190;2023-03-14T13:28:53;12.50;87.60
13174;DHT22;6652;48.802;9.190;2023-03-14T13:31:22;12.50;87.00
13174;DHT22;6652;48.802;9.190;2023-03-14T13:34:00;12.50;85.60
13174;DHT22;6652;48.802;9.190;2023-03-14T13:36:27;12.50;84.50
13174;DHT22;6652;48.802;9.190;2023-03-14T13:38:58;12.30;83.30
13174;DHT22;6652;48.802;9.190;2023-03-14T13:41:25;12.20;83.50
13174;DHT22;6652;48.802;9.190;2023-03-14T13:43:58;12.10;83.00
13174;DHT22;6652;48.802;9.190;2023-03-14T13:46:27;12.10;83.10
13174;DHT22;6652;48.802;9.190;2023-03-14T13:48:57;12.20;83.60
13174;DHT22;6652;48.802;9.190;2023-03-14T13:51:25;12.30;83.70
13174;DHT22;6652;48.802;9.190;2023-03-14T13:53:55;12.40;83.80
13174;DHT22;6652;48.802;9.190;2023-03-14T13:56:25;12.50;83.60
13174;DHT22;6652;48.802;9.190;2023-03-14T13:58:54;12.50;82.60
13174;DHT22;6652;48.802;9.190;2023-03-14T14:01:23;12.60;82.50
13174;DHT22;6652;48.802;9.190;2023-03-14T14:03:52;12.50;80.30
13174;DHT22;6652;48.802;9.190;2023-03-14T14:06:26;12.40;78.50
13174;DHT22;6652;48.802;9.190;2023-03-14T14:08:54;12.40;79.00
13174;DHT22;6652;48.802;9.190;2023-03-14T14:11:38;12.40;78.30
13174;DHT22;6652;48.802;9.190;2023-03-14T14:14:12;12.20;76.40
13174;DHT22;6652;48.802;9.190;2023-03-14T14:16:42;12.00;76.10
13174;DHT22;6652;48.802;9.190;2023-03-14T14:19:10;11.90;74.80
13174;DHT22;6652;48.802;9.190;2023-03-14T14:21:37;11.80;74.10
13174;DHT22;6652;48.802;9.190;2023-03-14T14:24:05;11.80;73.30
13174;DHT22;6652;48.802;9.190;2023-03-14T14:26:32;11.70;73.90
13174;DHT22;6652;48.802;9.190;2023-03-14T14:29:01;11.60;73.30
13174;DHT22;6652;48.802;9.190;2023-03-14T14:31:29;11.40;74.30
13174;DHT22;6652;48.802;9.190;2023-03-14T14:33:58;11.30;74.70
13174;DHT22;6652;48.802;9.190;2023-03-14T14:36:27;11.40;74.40
13174;DHT22;6652;48.802;9.190;2023-03-14T14:38:59;11.40;74.20
13174;DHT22;6652;48.802;9.190;2023-03-14T14:41:28;11.30;74.50
13174;DHT22;6652;48.802;9.190;2023-03-14T14:43:57;11.20;75.10
13174;DHT22;6652;48.802;9.190;2023-03-14T14:46:26;11.10;74.50
13174;DHT22;6652;48.802;9.190;2023-03-14T14:48:57;11.10;75.30
13174;DHT22;6652;48.802;9.190;2023-03-14T14:51:30;11.20;75.60
13174;DHT22;6652;48.802;9.190;2023-03-14T14:54:04;11.30;76.50
13174;DHT22;6652;48.802;9.190;2023-03-14T14:56:36;11.30;75.50
13174;DHT22;6652;48.802;9.190;2023-03-14T14:59:05;11.20;75.40
13174;DHT22;6652;48.802;9.190;2023-03-14T15:01:34;11.10;76.30
13174;DHT22;6652;48.802;9.190;2023-03-14T15:04:10;11.10;76.50
13174;DHT22;6652;48.802;9.190;2023-03-14T15:06:39;11.10;76.40
13174;DHT22;6652;48.802;9.190;2023-03-14T15:09:08;11.10;77.40
13174;DHT22;6652;48.802;9.190;2023-03-14T15:11:35;11.20;77.20
13174;DHT22;6652;48.802;9.190;2023-03-14T15:14:02;11.30;77.10
13174;DHT22;6652;48.802;9.190;2023-03-14T15:16:30;11.30;75.50
13174;DHT22;6652;48.802;9.190;2023-03-14T15:19:09;11.30;75.90
13174;DHT22;6652;48.802;9.190;2023-03-14T15:21:37;11.40;75.70
13174;DHT22;6652;48.802;9.190;2023-03-14T15:24:04;12.80;77.50
13174;DHT22;6652;48.802;9.190;2023-03-14T15:26:31;11.60;76.10
13174;DHT22;6652;48.802;9.190;2023-03-14T15:28:58;12.00;77.90
13174;DHT22;6652;48.802;9.190;2023-03-14T15:31:25;11.90;75.90
13174;DHT22;6652;48.802;9.190;2023-03-14T15:33:52;12.00;75.60
13174;DHT22;6652;48.802;9.190;2023-03-14T15:36:25;11.70;75.60
13174;DHT22;6652;48.802;9.190;2023-03-14T15:38:54;11.60;75.90
13174;DHT22;6652;48.802;9.190;2023-03-14T15:41:23;11.60;76.40
13174;DHT22;6652;48.802;9.190;2023-03-14T15:43:50;11.50;76.20
13174;DHT22;6652;48.802;9.190;2023-03-14T15:46:18;11.40;77.70
13174;DHT22;6652;48.802;9.190;2023-03-14T15:48:45;11.30;77.10
13174;DHT22;6652;48.802;9.190;2023-03-14T15:51:12;11.40;77.80
13174;DHT22;6652;48.802;9.190;2023-03-14T15:53:41;11.30;77.70
13174;DHT22;6652;48.802;9.190;2023-03-14T15:56:11;11.40;78.00
13174;DHT22;6652;48.802;9.190;2023-03-14T15:58:38;11.50;77.90
13174;DHT22;6652;48.802;9.190;2023-03-14T16:01:06;11.60;77.80
13174;DHT22;6652;48.802;9.190;2023-03-14T16:03:34;11.70;77.60
13174;DHT22;6652;48.802;9.190;2023-03-14T16:06:01;11.80;77.90